PWSweather.com
Personal Weather Stations
Station Observations

ChardChardGB

Lat: 50.877408, Lon: -2.94964741

Elevation: 341

Station Type: WS3083

http://www.merriott-astro.co.uk/weather/index.htm

High Low Average
Temperature 79.5°F26.4°C 51.4°F10.8°C 66.4°F19.1°C
Dew Point 58.2°F14.6°C 48.1°F8.9°C 54.1°F12.3°C
Winds 7.5 mph 12.1 kmh Calm Calm 3.0 mph ESE4.8 kmh ESE
Wind Gusts 11.4 mph18.3 kmh -- 5.0 mph8.0 kmh
Humidity 92% 44% 67%
Pressure 29.96 in1014.6 mb 29.89 in1012.2 mb -
Precipitation 0.00 in0.0 mm - -
Hour Temp Dew Point Humidity Winds Wind Gusts Pressure Precip Precip Rate Daily Precip Total
12:00 AM 56.1°F13.4°C 48.3°F9.1°C 75% 1.7 mph WNW2.7 kmh WNW 3.8 mph6.1 kmh 29.91 in1012.9 mb 0.00 in0.0 mm 0.00 in0.0 mm 0.00 in0.0 mm
12:10 AM 56.3°F13.5°C 48.8°F9.3°C 76% 1.6 mph WNW2.6 kmh WNW 3.1 mph5.0 kmh 29.91 in1012.9 mb 0.00 in0.0 mm 0.00 in0.0 mm 0.00 in0.0 mm
12:20 AM 55.9°F13.3°C 48.5°F9.2°C 76% 0.5 mph SW0.8 kmh SW 1.6 mph2.6 kmh 29.90 in1012.5 mb 0.00 in0.0 mm 0.00 in0.0 mm 0.00 in0.0 mm
12:30 AM 55.8°F13.2°C 48.7°F9.3°C 77% 0.7 mph E1.1 kmh E 1.6 mph2.6 kmh 29.91 in1012.9 mb 0.00 in0.0 mm 0.00 in0.0 mm 0.00 in0.0 mm
12:40 AM 55.2°F12.9°C 48.1°F8.9°C 77% 0.2 mph SE0.3 kmh SE 0.7 mph1.1 kmh 29.90 in1012.5 mb 0.00 in0.0 mm 0.00 in0.0 mm 0.00 in0.0 mm
12:50 AM 54.9°F12.7°C 48.5°F9.2°C 79% 0.4 mph ESE0.6 kmh ESE 1.6 mph2.6 kmh 29.90 in1012.5 mb 0.00 in0.0 mm 0.00 in0.0 mm 0.00 in0.0 mm
01:00 AM 54.9°F12.7°C 48.8°F9.3°C 80% Calm Calm -- 29.90 in1012.5 mb 0.00 in0.0 mm 0.00 in0.0 mm 0.00 in0.0 mm
01:10 AM 54.7°F12.6°C 49.0°F9.4°C 81% Calm Calm -- 29.90 in1012.5 mb 0.00 in0.0 mm 0.00 in0.0 mm 0.00 in0.0 mm
01:20 AM 54.9°F12.7°C 49.1°F9.5°C 81% 0.7 mph ESE1.1 kmh ESE 1.6 mph2.6 kmh 29.91 in1012.9 mb 0.00 in0.0 mm 0.00 in0.0 mm 0.00 in0.0 mm
01:30 AM 54.5°F12.5°C 49.1°F9.5°C 82% Calm Calm 0.7 mph1.1 kmh 29.91 in1012.9 mb 0.00 in0.0 mm 0.00 in0.0 mm 0.00 in0.0 mm
01:40 AM 54.5°F12.5°C 49.5°F9.7°C 83% Calm Calm 0.7 mph1.1 kmh 29.91 in1012.9 mb 0.00 in0.0 mm 0.00 in0.0 mm 0.00 in0.0 mm
01:50 AM 54.1°F12.3°C 50.4°F10.2°C 87% 0.1 mph S0.2 kmh S 0.7 mph1.1 kmh 29.90 in1012.5 mb 0.00 in0.0 mm 0.00 in0.0 mm 0.00 in0.0 mm
02:00 AM 54.0°F12.2°C 50.2°F10.1°C 87% Calm Calm 0.7 mph1.1 kmh 29.90 in1012.5 mb 0.00 in0.0 mm 0.00 in0.0 mm 0.00 in0.0 mm
02:10 AM 54.1°F12.3°C 50.7°F10.4°C 88% 0.1 mph SW0.2 kmh SW 0.7 mph1.1 kmh 29.91 in1012.9 mb 0.00 in0.0 mm 0.00 in0.0 mm 0.00 in0.0 mm
02:20 AM 53.6°F12.0°C 50.4°F10.2°C 89% 1.1 mph SW1.8 kmh SW 1.6 mph2.6 kmh 29.90 in1012.5 mb 0.00 in0.0 mm 0.00 in0.0 mm 0.00 in0.0 mm
02:30 AM 53.1°F11.7°C 49.9°F9.9°C 89% 0.9 mph S1.4 kmh S 2.2 mph3.5 kmh 29.90 in1012.5 mb 0.00 in0.0 mm 0.00 in0.0 mm 0.00 in0.0 mm
02:40 AM 52.7°F11.5°C 49.6°F9.8°C 89% 0.2 mph NW0.3 kmh NW 0.7 mph1.1 kmh 29.90 in1012.5 mb 0.00 in0.0 mm 0.00 in0.0 mm 0.00 in0.0 mm
02:50 AM 52.5°F11.4°C 49.4°F9.7°C 89% 0.3 mph SW0.5 kmh SW 0.7 mph1.1 kmh 29.90 in1012.5 mb 0.00 in0.0 mm 0.00 in0.0 mm 0.00 in0.0 mm
03:00 AM 52.5°F11.4°C 49.7°F9.8°C 90% 2.1 mph S3.4 kmh S 3.1 mph5.0 kmh 29.90 in1012.5 mb 0.00 in0.0 mm 0.00 in0.0 mm 0.00 in0.0 mm
03:10 AM 52.7°F11.5°C 49.9°F9.9°C 90% 0.7 mph SW1.1 kmh SW 2.2 mph3.5 kmh 29.90 in1012.5 mb 0.00 in0.0 mm 0.00 in0.0 mm 0.00 in0.0 mm
03:20 AM 52.7°F11.5°C 49.9°F9.9°C 90% 1.0 mph SW1.6 kmh SW 2.2 mph3.5 kmh 29.89 in1012.2 mb 0.00 in0.0 mm 0.00 in0.0 mm 0.00 in0.0 mm
03:30 AM 52.9°F11.6°C 50.3°F10.2°C 91% 1.8 mph SSW2.9 kmh SSW 3.1 mph5.0 kmh 29.90 in1012.5 mb 0.00 in0.0 mm 0.00 in0.0 mm 0.00 in0.0 mm
03:40 AM 52.7°F11.5°C 49.9°F9.9°C 90% 0.7 mph W1.1 kmh W 1.6 mph2.6 kmh 29.90 in1012.5 mb 0.00 in0.0 mm 0.00 in0.0 mm 0.00 in0.0 mm
03:50 AM 52.3°F11.3°C 49.5°F9.7°C 90% 0.3 mph SSW0.5 kmh SSW 0.7 mph1.1 kmh 29.90 in1012.5 mb 0.00 in0.0 mm 0.00 in0.0 mm 0.00 in0.0 mm
04:00 AM 51.8°F11.0°C 49.0°F9.4°C 90% Calm Calm -- 29.90 in1012.5 mb 0.00 in0.0 mm 0.00 in0.0 mm 0.00 in0.0 mm
04:10 AM 51.8°F11.0°C 49.0°F9.4°C 90% 0.3 mph SW0.5 kmh SW 1.6 mph2.6 kmh 29.91 in1012.9 mb 0.00 in0.0 mm 0.00 in0.0 mm 0.00 in0.0 mm
04:20 AM 51.6°F10.9°C 48.8°F9.3°C 90% Calm Calm -- 29.90 in1012.5 mb 0.00 in0.0 mm 0.00 in0.0 mm 0.00 in0.0 mm
04:30 AM 51.6°F10.9°C 48.8°F9.3°C 90% Calm Calm -- 29.91 in1012.9 mb 0.00 in0.0 mm 0.00 in0.0 mm 0.00 in0.0 mm
04:40 AM 51.8°F11.0°C 49.3°F9.6°C 91% 1.4 mph SW2.3 kmh SW 3.1 mph5.0 kmh 29.90 in1012.5 mb 0.00 in0.0 mm 0.00 in0.0 mm 0.00 in0.0 mm
04:50 AM 51.4°F10.8°C 48.9°F9.4°C 91% 0.2 mph WSW0.3 kmh WSW 0.7 mph1.1 kmh 29.91 in1012.9 mb 0.00 in0.0 mm 0.00 in0.0 mm 0.00 in0.0 mm
05:00 AM 51.6°F10.9°C 49.1°F9.5°C 91% 1.3 mph SW2.1 kmh SW 3.1 mph5.0 kmh 29.91 in1012.9 mb 0.00 in0.0 mm 0.00 in0.0 mm 0.00 in0.0 mm
05:10 AM 51.8°F11.0°C 49.3°F9.6°C 91% 1.3 mph SSW2.1 kmh SSW 2.2 mph3.5 kmh 29.91 in1012.9 mb 0.00 in0.0 mm 0.00 in0.0 mm 0.00 in0.0 mm
05:20 AM 51.8°F11.0°C 49.3°F9.6°C 91% 0.4 mph S0.6 kmh S 1.6 mph2.6 kmh 29.91 in1012.9 mb 0.00 in0.0 mm 0.00 in0.0 mm 0.00 in0.0 mm
05:30 AM 52.2°F11.2°C 49.9°F9.9°C 92% 0.8 mph SW1.3 kmh SW 2.2 mph3.5 kmh 29.91 in1012.9 mb 0.00 in0.0 mm 0.00 in0.0 mm 0.00 in0.0 mm
05:40 AM 52.7°F11.5°C 50.4°F10.2°C 92% 1.2 mph S1.9 kmh S 2.2 mph3.5 kmh 29.91 in1012.9 mb 0.00 in0.0 mm 0.00 in0.0 mm 0.00 in0.0 mm
05:50 AM 53.4°F11.9°C 51.2°F10.7°C 92% 2.4 mph S3.9 kmh S 3.1 mph5.0 kmh 29.92 in1013.2 mb 0.00 in0.0 mm 0.00 in0.0 mm 0.00 in0.0 mm
06:00 AM 54.1°F12.3°C 51.9°F11.1°C 92% 1.2 mph SSE1.9 kmh SSE 2.2 mph3.5 kmh 29.91 in1012.9 mb 0.00 in0.0 mm 0.00 in0.0 mm 0.00 in0.0 mm
06:10 AM 56.3°F13.5°C 53.1°F11.7°C 89% 0.7 mph N1.1 kmh N 1.6 mph2.6 kmh 29.92 in1013.2 mb 0.00 in0.0 mm 0.00 in0.0 mm 0.00 in0.0 mm
06:20 AM 60.4°F15.8°C 57.2°F14.0°C 89% 0.9 mph E1.4 kmh E 2.2 mph3.5 kmh 29.92 in1013.2 mb 0.00 in0.0 mm 0.00 in0.0 mm 0.00 in0.0 mm
06:30 AM 63.5°F17.5°C 56.9°F13.8°C 79% 0.6 mph S1.0 kmh S 1.6 mph2.6 kmh 29.92 in1013.2 mb 0.00 in0.0 mm 0.00 in0.0 mm 0.00 in0.0 mm
06:40 AM 66.4°F19.1°C 56.3°F13.5°C 70% 0.7 mph SSE1.1 kmh SSE 1.6 mph2.6 kmh 29.92 in1013.2 mb 0.00 in0.0 mm 0.00 in0.0 mm 0.00 in0.0 mm
06:50 AM 69.6°F20.9°C 57.8°F14.3°C 66% 0.3 mph S0.5 kmh S 0.7 mph1.1 kmh 29.91 in1012.9 mb 0.00 in0.0 mm 0.00 in0.0 mm 0.00 in0.0 mm
07:00 AM 72.9°F22.7°C 58.2°F14.6°C 60% 0.1 mph WSW0.2 kmh WSW 0.7 mph1.1 kmh 29.92 in1013.2 mb 0.00 in0.0 mm 0.00 in0.0 mm 0.00 in0.0 mm
07:10 AM 70.2°F21.2°C 56.1°F13.4°C 61% 2.4 mph NE3.9 kmh NE 3.8 mph6.1 kmh 29.92 in1013.2 mb 0.00 in0.0 mm 0.00 in0.0 mm 0.00 in0.0 mm
07:20 AM 68.9°F20.5°C 55.8°F13.2°C 63% 3.5 mph N5.6 kmh N 5.4 mph8.7 kmh 29.92 in1013.2 mb 0.00 in0.0 mm 0.00 in0.0 mm 0.00 in0.0 mm
07:30 AM 67.5°F19.7°C 56.1°F13.4°C 67% 4.8 mph N7.7 kmh N 6.9 mph11.1 kmh 29.92 in1013.2 mb 0.00 in0.0 mm 0.00 in0.0 mm 0.00 in0.0 mm
07:40 AM 67.3°F19.6°C 56.0°F13.3°C 67% 5.6 mph NE9.0 kmh NE 8.3 mph13.4 kmh 29.92 in1013.2 mb 0.00 in0.0 mm 0.00 in0.0 mm 0.00 in0.0 mm
07:50 AM 67.8°F19.9°C 56.5°F13.6°C 67% 5.4 mph NE8.7 kmh NE 8.3 mph13.4 kmh 29.92 in1013.2 mb 0.00 in0.0 mm 0.00 in0.0 mm 0.00 in0.0 mm
08:00 AM 68.4°F20.2°C 56.6°F13.7°C 66% 5.4 mph NNE8.7 kmh NNE 6.9 mph11.1 kmh 29.92 in1013.2 mb 0.00 in0.0 mm 0.00 in0.0 mm 0.00 in0.0 mm
08:10 AM 68.4°F20.2°C 56.2°F13.4°C 65% 6.1 mph NE9.8 kmh NE 7.6 mph12.2 kmh 29.91 in1012.9 mb 0.00 in0.0 mm 0.00 in0.0 mm 0.00 in0.0 mm
08:20 AM 68.0°F20.0°C 55.8°F13.2°C 65% 7.4 mph N11.9 kmh N 9.8 mph15.8 kmh 29.92 in1013.2 mb 0.00 in0.0 mm 0.00 in0.0 mm 0.00 in0.0 mm
08:30 AM 68.0°F20.0°C 56.2°F13.4°C 66% 6.8 mph N10.9 kmh N 9.2 mph14.8 kmh 29.92 in1013.2 mb 0.00 in0.0 mm 0.00 in0.0 mm 0.00 in0.0 mm
08:40 AM 68.5°F20.3°C 56.3°F13.5°C 65% 7.3 mph NE11.7 kmh NE 11.4 mph18.3 kmh 29.92 in1013.2 mb 0.00 in0.0 mm 0.00 in0.0 mm 0.00 in0.0 mm
08:50 AM 68.9°F20.5°C 55.8°F13.2°C 63% 7.3 mph NE11.7 kmh NE 9.8 mph15.8 kmh 29.92 in1013.2 mb 0.00 in0.0 mm 0.00 in0.0 mm 0.00 in0.0 mm
09:00 AM 68.9°F20.5°C 55.8°F13.2°C 63% 7.2 mph NE11.6 kmh NE 10.7 mph17.2 kmh 29.92 in1013.2 mb 0.00 in0.0 mm 0.00 in0.0 mm 0.00 in0.0 mm
09:10 AM 69.4°F20.8°C 56.3°F13.5°C 63% 7.0 mph ENE11.3 kmh ENE 9.2 mph14.8 kmh 29.92 in1013.2 mb 0.00 in0.0 mm 0.00 in0.0 mm 0.00 in0.0 mm
09:20 AM 69.8°F21.0°C 56.2°F13.4°C 62% 6.3 mph N10.1 kmh N 7.6 mph12.2 kmh 29.92 in1013.2 mb 0.00 in0.0 mm 0.00 in0.0 mm 0.00 in0.0 mm
09:30 AM 71.8°F22.1°C 57.2°F14.0°C 60% 5.2 mph N8.4 kmh N 6.9 mph11.1 kmh 29.92 in1013.2 mb 0.00 in0.0 mm 0.00 in0.0 mm 0.00 in0.0 mm
09:40 AM 72.1°F22.3°C 57.5°F14.2°C 60% 5.2 mph NE8.4 kmh NE 7.6 mph12.2 kmh 29.93 in1013.5 mb 0.00 in0.0 mm 0.00 in0.0 mm 0.00 in0.0 mm
09:50 AM 72.1°F22.3°C 56.6°F13.7°C 58% 6.2 mph NE10.0 kmh NE 9.2 mph14.8 kmh 29.93 in1013.5 mb 0.00 in0.0 mm 0.00 in0.0 mm 0.00 in0.0 mm
10:00 AM 72.9°F22.7°C 55.3°F12.9°C 54% 5.2 mph ENE8.4 kmh ENE 6.0 mph9.7 kmh 29.93 in1013.5 mb 0.00 in0.0 mm 0.00 in0.0 mm 0.00 in0.0 mm
10:10 AM 72.5°F22.5°C 54.9°F12.7°C 54% 5.8 mph NNE9.3 kmh NNE 6.9 mph11.1 kmh 29.93 in1013.5 mb 0.00 in0.0 mm 0.00 in0.0 mm 0.00 in0.0 mm
10:20 AM 74.5°F23.6°C 55.7°F13.2°C 52% 4.1 mph E6.6 kmh E 6.9 mph11.1 kmh 29.93 in1013.5 mb 0.00 in0.0 mm 0.00 in0.0 mm 0.00 in0.0 mm
10:30 AM 73.6°F23.1°C 55.4°F13.0°C 53% 5.8 mph NNE9.3 kmh NNE 8.3 mph13.4 kmh 29.93 in1013.5 mb 0.00 in0.0 mm 0.00 in0.0 mm 0.00 in0.0 mm
10:40 AM 74.7°F23.7°C 55.9°F13.3°C 52% 4.6 mph NE7.4 kmh NE 9.2 mph14.8 kmh 29.93 in1013.5 mb 0.00 in0.0 mm 0.00 in0.0 mm 0.00 in0.0 mm
10:50 AM 75.4°F24.1°C 55.5°F13.1°C 50% 5.1 mph NE8.2 kmh NE 6.9 mph11.1 kmh 29.93 in1013.5 mb 0.00 in0.0 mm 0.00 in0.0 mm 0.00 in0.0 mm
11:00 AM 75.7°F24.3°C 54.7°F12.6°C 48% 4.9 mph NNW7.9 kmh NNW 6.9 mph11.1 kmh 29.94 in1013.9 mb 0.00 in0.0 mm 0.00 in0.0 mm 0.00 in0.0 mm
11:10 AM 77.0°F25.0°C 55.8°F13.2°C 48% 4.5 mph NE7.2 kmh NE 6.0 mph9.7 kmh 29.94 in1013.9 mb 0.00 in0.0 mm 0.00 in0.0 mm 0.00 in0.0 mm
11:20 AM 77.4°F25.2°C 56.2°F13.4°C 48% 5.3 mph NE8.5 kmh NE 6.0 mph9.7 kmh 29.94 in1013.9 mb 0.00 in0.0 mm 0.00 in0.0 mm 0.00 in0.0 mm
11:30 AM 76.5°F24.7°C 54.2°F12.3°C 46% 4.3 mph ENE6.9 kmh ENE 5.4 mph8.7 kmh 29.94 in1013.9 mb 0.00 in0.0 mm 0.00 in0.0 mm 0.00 in0.0 mm
11:40 AM 75.9°F24.4°C 56.5°F13.6°C 51% 2.9 mph ENE4.7 kmh ENE 3.8 mph6.1 kmh 29.93 in1013.5 mb 0.00 in0.0 mm 0.00 in0.0 mm 0.00 in0.0 mm
11:50 AM 75.9°F24.4°C 56.0°F13.3°C 50% 3.8 mph NE6.1 kmh NE 7.6 mph12.2 kmh 29.94 in1013.9 mb 0.00 in0.0 mm 0.00 in0.0 mm 0.00 in0.0 mm
12:00 PM 74.8°F23.8°C 55.0°F12.8°C 50% 4.3 mph NNE6.9 kmh NNE 6.0 mph9.7 kmh 29.94 in1013.9 mb 0.00 in0.0 mm 0.00 in0.0 mm 0.00 in0.0 mm
12:10 PM 74.5°F23.6°C 54.7°F12.6°C 50% 3.9 mph NNW6.3 kmh NNW 4.5 mph7.2 kmh 29.94 in1013.9 mb 0.00 in0.0 mm 0.00 in0.0 mm 0.00 in0.0 mm
12:20 PM 75.6°F24.2°C 55.6°F13.1°C 50% 2.4 mph E3.9 kmh E 3.8 mph6.1 kmh 29.94 in1013.9 mb 0.00 in0.0 mm 0.00 in0.0 mm 0.00 in0.0 mm
12:30 PM 76.6°F24.8°C 53.1°F11.7°C 44% 4.1 mph NNE6.6 kmh NNE 5.4 mph8.7 kmh 29.93 in1013.5 mb 0.00 in0.0 mm 0.00 in0.0 mm 0.00 in0.0 mm
12:40 PM 79.5°F26.4°C 56.4°F13.6°C 45% 2.4 mph N3.9 kmh N 5.4 mph8.7 kmh 29.93 in1013.5 mb 0.00 in0.0 mm 0.00 in0.0 mm 0.00 in0.0 mm
12:50 PM 76.3°F24.6°C 53.4°F11.9°C 45% 6.2 mph NE10.0 kmh NE 10.7 mph17.2 kmh 29.93 in1013.5 mb 0.00 in0.0 mm 0.00 in0.0 mm 0.00 in0.0 mm
01:00 PM 75.0°F23.9°C 54.6°F12.6°C 49% 4.1 mph NE6.6 kmh NE 6.9 mph11.1 kmh 29.93 in1013.5 mb 0.00 in0.0 mm 0.00 in0.0 mm 0.00 in0.0 mm
01:10 PM 73.4°F23.0°C 53.7°F12.1°C 50% 5.3 mph NE8.5 kmh NE 6.9 mph11.1 kmh 29.92 in1013.2 mb 0.00 in0.0 mm 0.00 in0.0 mm 0.00 in0.0 mm
01:20 PM 73.9°F23.3°C 54.2°F12.3°C 50% 4.2 mph NE6.8 kmh NE 5.4 mph8.7 kmh 29.92 in1013.2 mb 0.00 in0.0 mm 0.00 in0.0 mm 0.00 in0.0 mm
01:30 PM 75.7°F24.3°C 54.7°F12.6°C 48% 3.5 mph N5.6 kmh N 8.3 mph13.4 kmh 29.92 in1013.2 mb 0.00 in0.0 mm 0.00 in0.0 mm 0.00 in0.0 mm
01:40 PM 76.6°F24.8°C 55.5°F13.1°C 48% 5.7 mph ENE9.2 kmh ENE 9.2 mph14.8 kmh 29.92 in1013.2 mb 0.00 in0.0 mm 0.00 in0.0 mm 0.00 in0.0 mm
01:50 PM 74.3°F23.5°C 55.0°F12.8°C 51% 7.4 mph NE11.9 kmh NE 10.7 mph17.2 kmh 29.92 in1013.2 mb 0.00 in0.0 mm 0.00 in0.0 mm 0.00 in0.0 mm
02:00 PM 73.2°F22.9°C 54.6°F12.6°C 52% 7.5 mph NNE12.1 kmh NNE 11.4 mph18.3 kmh 29.92 in1013.2 mb 0.00 in0.0 mm 0.00 in0.0 mm 0.00 in0.0 mm
02:10 PM 74.3°F23.5°C 55.6°F13.1°C 52% 5.5 mph NE8.9 kmh NE 8.3 mph13.4 kmh 29.92 in1013.2 mb 0.00 in0.0 mm 0.00 in0.0 mm 0.00 in0.0 mm
02:20 PM 75.2°F24.0°C 55.3°F12.9°C 50% 4.9 mph ENE7.9 kmh ENE 6.0 mph9.7 kmh 29.92 in1013.2 mb 0.00 in0.0 mm 0.00 in0.0 mm 0.00 in0.0 mm
02:30 PM 77.4°F25.2°C 56.2°F13.4°C 48% 4.0 mph NE6.4 kmh NE 6.9 mph11.1 kmh 29.92 in1013.2 mb 0.00 in0.0 mm 0.00 in0.0 mm 0.00 in0.0 mm
02:40 PM 78.1°F25.6°C 56.2°F13.4°C 47% 4.6 mph NNW7.4 kmh NNW 8.3 mph13.4 kmh 29.91 in1012.9 mb 0.00 in0.0 mm 0.00 in0.0 mm 0.00 in0.0 mm
02:50 PM 77.0°F25.0°C 56.4°F13.6°C 49% 5.8 mph NNE9.3 kmh NNE 6.9 mph11.1 kmh 29.92 in1013.2 mb 0.00 in0.0 mm 0.00 in0.0 mm 0.00 in0.0 mm
03:00 PM 75.6°F24.2°C 53.9°F12.2°C 47% 7.1 mph N11.4 kmh N 11.4 mph18.3 kmh 29.91 in1012.9 mb 0.00 in0.0 mm 0.00 in0.0 mm 0.00 in0.0 mm
03:10 PM 75.0°F23.9°C 56.2°F13.4°C 52% 7.4 mph NE11.9 kmh NE 11.4 mph18.3 kmh 29.92 in1013.2 mb 0.00 in0.0 mm 0.00 in0.0 mm 0.00 in0.0 mm
03:20 PM 73.9°F23.3°C 55.2°F12.9°C 52% 7.2 mph NNE11.6 kmh NNE 9.8 mph15.8 kmh 29.92 in1013.2 mb 0.00 in0.0 mm 0.00 in0.0 mm 0.00 in0.0 mm
03:30 PM 73.9°F23.3°C 55.8°F13.2°C 53% 5.9 mph ENE9.5 kmh ENE 10.7 mph17.2 kmh 29.92 in1013.2 mb 0.00 in0.0 mm 0.00 in0.0 mm 0.00 in0.0 mm
03:40 PM 73.8°F23.2°C 55.6°F13.1°C 53% 6.6 mph NNE10.6 kmh NNE 9.8 mph15.8 kmh 29.91 in1012.9 mb 0.00 in0.0 mm 0.00 in0.0 mm 0.00 in0.0 mm
03:50 PM 73.8°F23.2°C 55.1°F12.8°C 52% 5.7 mph NE9.2 kmh NE 7.6 mph12.2 kmh 29.91 in1012.9 mb 0.00 in0.0 mm 0.00 in0.0 mm 0.00 in0.0 mm
04:00 PM 75.2°F24.0°C 56.4°F13.6°C 52% 4.1 mph N6.6 kmh N 6.0 mph9.7 kmh 29.91 in1012.9 mb 0.00 in0.0 mm 0.00 in0.0 mm 0.00 in0.0 mm
04:10 PM 77.2°F25.1°C 54.2°F12.3°C 45% 4.3 mph NNE6.9 kmh NNE 6.0 mph9.7 kmh 29.91 in1012.9 mb 0.00 in0.0 mm 0.00 in0.0 mm 0.00 in0.0 mm
04:20 PM 76.1°F24.5°C 54.4°F12.4°C 47% 5.4 mph NE8.7 kmh NE 6.9 mph11.1 kmh 29.91 in1012.9 mb 0.00 in0.0 mm 0.00 in0.0 mm 0.00 in0.0 mm
04:30 PM 77.4°F25.2°C 56.2°F13.4°C 48% 4.4 mph NNE7.1 kmh NNE 6.0 mph9.7 kmh 29.91 in1012.9 mb 0.00 in0.0 mm 0.00 in0.0 mm 0.00 in0.0 mm
04:40 PM 78.4°F25.8°C 55.4°F13.0°C 45% 3.6 mph N5.8 kmh N 5.4 mph8.7 kmh 29.90 in1012.5 mb 0.00 in0.0 mm 0.00 in0.0 mm 0.00 in0.0 mm
04:50 PM 77.5°F25.3°C 54.6°F12.6°C 45% 4.7 mph NE7.6 kmh NE 6.0 mph9.7 kmh 29.91 in1012.9 mb 0.00 in0.0 mm 0.00 in0.0 mm 0.00 in0.0 mm
05:00 PM 77.4°F25.2°C 55.6°F13.1°C 47% 5.8 mph N9.3 kmh N 7.6 mph12.2 kmh 29.91 in1012.9 mb 0.00 in0.0 mm 0.00 in0.0 mm 0.00 in0.0 mm
05:10 PM 78.3°F25.7°C 55.2°F12.9°C 45% 4.0 mph N6.4 kmh N 5.4 mph8.7 kmh 29.90 in1012.5 mb 0.00 in0.0 mm 0.00 in0.0 mm 0.00 in0.0 mm
05:20 PM 77.7°F25.4°C 55.3°F12.9°C 46% 4.5 mph N7.2 kmh N 6.0 mph9.7 kmh 29.91 in1012.9 mb 0.00 in0.0 mm 0.00 in0.0 mm 0.00 in0.0 mm
05:30 PM 78.1°F25.6°C 55.7°F13.2°C 46% 4.3 mph NE6.9 kmh NE 6.9 mph11.1 kmh 29.90 in1012.5 mb 0.00 in0.0 mm 0.00 in0.0 mm 0.00 in0.0 mm
05:40 PM 78.3°F25.7°C 55.2°F12.9°C 45% 3.8 mph NNE6.1 kmh NNE 6.9 mph11.1 kmh 29.91 in1012.9 mb 0.00 in0.0 mm 0.00 in0.0 mm 0.00 in0.0 mm
05:50 PM 76.6°F24.8°C 55.5°F13.1°C 48% 4.8 mph NNE7.7 kmh NNE 6.0 mph9.7 kmh 29.91 in1012.9 mb 0.00 in0.0 mm 0.00 in0.0 mm 0.00 in0.0 mm
06:00 PM 76.5°F24.7°C 55.9°F13.3°C 49% 3.5 mph ENE5.6 kmh ENE 5.4 mph8.7 kmh 29.90 in1012.5 mb 0.00 in0.0 mm 0.00 in0.0 mm 0.00 in0.0 mm
06:10 PM 77.2°F25.1°C 57.1°F13.9°C 50% 3.7 mph N6.0 kmh N 5.4 mph8.7 kmh 29.91 in1012.9 mb 0.00 in0.0 mm 0.00 in0.0 mm 0.00 in0.0 mm
06:20 PM 77.0°F25.0°C 57.0°F13.9°C 50% 4.5 mph NE7.2 kmh NE 6.0 mph9.7 kmh 29.91 in1012.9 mb 0.00 in0.0 mm 0.00 in0.0 mm 0.00 in0.0 mm
06:30 PM 76.5°F24.7°C 56.5°F13.6°C 50% 3.9 mph NNE6.3 kmh NNE 5.4 mph8.7 kmh 29.91 in1012.9 mb 0.00 in0.0 mm 0.00 in0.0 mm 0.00 in0.0 mm
06:40 PM 76.3°F24.6°C 56.3°F13.5°C 50% 3.9 mph N6.3 kmh N 4.5 mph7.2 kmh 29.91 in1012.9 mb 0.00 in0.0 mm 0.00 in0.0 mm 0.00 in0.0 mm
06:50 PM 75.4°F24.1°C 56.0°F13.3°C 51% 4.2 mph NE6.8 kmh NE 6.0 mph9.7 kmh 29.91 in1012.9 mb 0.00 in0.0 mm 0.00 in0.0 mm 0.00 in0.0 mm
07:00 PM 75.0°F23.9°C 56.2°F13.4°C 52% 4.0 mph NE6.4 kmh NE 6.0 mph9.7 kmh 29.92 in1013.2 mb 0.00 in0.0 mm 0.00 in0.0 mm 0.00 in0.0 mm
07:10 PM 74.1°F23.4°C 55.9°F13.3°C 53% 3.6 mph N5.8 kmh N 4.5 mph7.2 kmh 29.92 in1013.2 mb 0.00 in0.0 mm 0.00 in0.0 mm 0.00 in0.0 mm
07:20 PM 72.5°F22.5°C 55.9°F13.3°C 56% 3.1 mph E5.0 kmh E 4.5 mph7.2 kmh 29.92 in1013.2 mb 0.00 in0.0 mm 0.00 in0.0 mm 0.00 in0.0 mm
07:30 PM 70.5°F21.4°C 57.8°F14.3°C 64% 1.7 mph SE2.7 kmh SE 3.1 mph5.0 kmh 29.92 in1013.2 mb 0.00 in0.0 mm 0.00 in0.0 mm 0.00 in0.0 mm
07:40 PM 69.3°F20.7°C 57.4°F14.1°C 66% 1.6 mph S2.6 kmh S 3.1 mph5.0 kmh 29.93 in1013.5 mb 0.00 in0.0 mm 0.00 in0.0 mm 0.00 in0.0 mm
07:50 PM 68.2°F20.1°C 57.2°F14.0°C 68% 1.8 mph WSW2.9 kmh WSW 3.1 mph5.0 kmh 29.93 in1013.5 mb 0.00 in0.0 mm 0.00 in0.0 mm 0.00 in0.0 mm
08:00 PM 67.5°F19.7°C 57.4°F14.1°C 70% 0.9 mph SW1.4 kmh SW 2.2 mph3.5 kmh 29.93 in1013.5 mb 0.00 in0.0 mm 0.00 in0.0 mm 0.00 in0.0 mm
08:10 PM 66.6°F19.2°C 56.5°F13.6°C 70% 0.6 mph S1.0 kmh S 2.2 mph3.5 kmh 29.93 in1013.5 mb 0.00 in0.0 mm 0.00 in0.0 mm 0.00 in0.0 mm
08:20 PM 65.8°F18.8°C 56.2°F13.4°C 71% 1.3 mph SSW2.1 kmh SSW 3.8 mph6.1 kmh 29.94 in1013.9 mb 0.00 in0.0 mm 0.00 in0.0 mm 0.00 in0.0 mm
08:30 PM 65.3°F18.5°C 56.1°F13.4°C 72% 1.7 mph S2.7 kmh S 3.8 mph6.1 kmh 29.94 in1013.9 mb 0.00 in0.0 mm 0.00 in0.0 mm 0.00 in0.0 mm
08:40 PM 64.8°F18.2°C 55.5°F13.1°C 72% Calm Calm -- 29.94 in1013.9 mb 0.00 in0.0 mm 0.00 in0.0 mm 0.00 in0.0 mm
08:50 PM 63.9°F17.7°C 55.1°F12.8°C 73% 0.4 mph SW0.6 kmh SW 1.6 mph2.6 kmh 29.94 in1013.9 mb 0.00 in0.0 mm 0.00 in0.0 mm 0.00 in0.0 mm
09:00 PM 63.3°F17.4°C 56.0°F13.3°C 77% 0.1 mph NNW0.2 kmh NNW 0.7 mph1.1 kmh 29.94 in1013.9 mb 0.00 in0.0 mm 0.00 in0.0 mm 0.00 in0.0 mm
09:10 PM 62.6°F17.0°C 55.7°F13.2°C 78% Calm Calm -- 29.94 in1013.9 mb 0.00 in0.0 mm 0.00 in0.0 mm 0.00 in0.0 mm
09:20 PM 62.4°F16.9°C 55.8°F13.2°C 79% Calm Calm -- 29.95 in1014.2 mb 0.00 in0.0 mm 0.00 in0.0 mm 0.00 in0.0 mm
09:30 PM 62.2°F16.8°C 56.4°F13.6°C 81% 1.7 mph NE2.7 kmh NE 2.2 mph3.5 kmh 29.95 in1014.2 mb 0.00 in0.0 mm 0.00 in0.0 mm 0.00 in0.0 mm
09:40 PM 61.9°F16.6°C 56.3°F13.5°C 82% 2.0 mph NE3.2 kmh NE 3.1 mph5.0 kmh 29.95 in1014.2 mb 0.00 in0.0 mm 0.00 in0.0 mm 0.00 in0.0 mm
09:50 PM 61.5°F16.4°C 56.3°F13.5°C 83% 2.4 mph NE3.9 kmh NE 3.1 mph5.0 kmh 29.95 in1014.2 mb 0.00 in0.0 mm 0.00 in0.0 mm 0.00 in0.0 mm
10:00 PM 61.3°F16.3°C 56.1°F13.4°C 83% 2.7 mph NE4.3 kmh NE 3.1 mph5.0 kmh 29.95 in1014.2 mb 0.00 in0.0 mm 0.00 in0.0 mm 0.00 in0.0 mm
10:10 PM 61.0°F16.1°C 55.8°F13.2°C 83% 2.4 mph NE3.9 kmh NE 3.1 mph5.0 kmh 29.95 in1014.2 mb 0.00 in0.0 mm 0.00 in0.0 mm 0.00 in0.0 mm
10:20 PM 60.6°F15.9°C 55.4°F13.0°C 83% 1.9 mph NE3.1 kmh NE 2.2 mph3.5 kmh 29.95 in1014.2 mb 0.00 in0.0 mm 0.00 in0.0 mm 0.00 in0.0 mm
10:30 PM 60.1°F15.6°C 54.9°F12.7°C 83% 0.6 mph NNE1.0 kmh NNE 1.6 mph2.6 kmh 29.95 in1014.2 mb 0.00 in0.0 mm 0.00 in0.0 mm 0.00 in0.0 mm
10:40 PM 60.1°F15.6°C 54.9°F12.7°C 83% Calm Calm -- 29.95 in1014.2 mb 0.00 in0.0 mm 0.00 in0.0 mm 0.00 in0.0 mm
10:50 PM 59.9°F15.5°C 55.4°F13.0°C 85% 1.8 mph NE2.9 kmh NE 3.1 mph5.0 kmh 29.96 in1014.6 mb 0.00 in0.0 mm 0.00 in0.0 mm 0.00 in0.0 mm
11:00 PM 60.3°F15.7°C 56.1°F13.4°C 86% 2.3 mph NE3.7 kmh NE 3.1 mph5.0 kmh 29.96 in1014.6 mb 0.00 in0.0 mm 0.00 in0.0 mm 0.00 in0.0 mm
11:10 PM 60.3°F15.7°C 56.1°F13.4°C 86% 0.6 mph NNE1.0 kmh NNE 1.6 mph2.6 kmh 29.96 in1014.6 mb 0.00 in0.0 mm 0.00 in0.0 mm 0.00 in0.0 mm
11:20 PM 59.9°F15.5°C 55.4°F13.0°C 85% 1.4 mph NE2.3 kmh NE 2.2 mph3.5 kmh 29.95 in1014.2 mb 0.00 in0.0 mm 0.00 in0.0 mm 0.00 in0.0 mm
11:30 PM 59.7°F15.4°C 55.2°F12.9°C 85% 1.4 mph NE2.3 kmh NE 2.2 mph3.5 kmh 29.96 in1014.6 mb 0.00 in0.0 mm 0.00 in0.0 mm 0.00 in0.0 mm
11:40 PM 59.4°F15.2°C 54.5°F12.5°C 84% 0.8 mph NE1.3 kmh NE 2.2 mph3.5 kmh 29.95 in1014.2 mb 0.00 in0.0 mm 0.00 in0.0 mm 0.00 in0.0 mm
11:50 PM 59.2°F15.1°C 54.4°F12.4°C 84% 0.3 mph NNE0.5 kmh NNE 1.6 mph2.6 kmh 29.95 in1014.2 mb 0.00 in0.0 mm 0.00 in0.0 mm 0.00 in0.0 mm